sensor_id;sensor_type;location;lat;lon;timestamp;P1;durP1;ratioP1;P2;durP2;ratioP2
46348;SDS011;32057;47.830;19.046;2024-01-30T00:02:15;13.27;;;7.63;;
46348;SDS011;32057;47.830;19.046;2024-01-30T00:04:40;11.68;;;5.55;;
46348;SDS011;32057;47.830;19.046;2024-01-30T00:07:05;14.88;;;8.25;;
46348;SDS011;32057;47.830;19.046;2024-01-30T00:09:31;8.35;;;6.68;;
46348;SDS011;32057;47.830;19.046;2024-01-30T00:11:56;18.02;;;6.63;;
46348;SDS011;32057;47.830;19.046;2024-01-30T00:14:21;22.48;;;6.80;;
46348;SDS011;32057;47.830;19.046;2024-01-30T00:16:48;25.27;;;7.88;;
46348;SDS011;32057;47.830;19.046;2024-01-30T00:19:13;12.88;;;7.22;;
46348;SDS011;32057;47.830;19.046;2024-01-30T00:21:39;15.68;;;7.47;;
46348;SDS011;32057;47.830;19.046;2024-01-30T00:24:04;14.40;;;6.18;;
46348;SDS011;32057;47.830;19.046;2024-01-30T00:26:29;13.10;;;8.18;;
46348;SDS011;32057;47.830;19.046;2024-01-30T00:28:55;15.50;;;6.38;;
46348;SDS011;32057;47.830;19.046;2024-01-30T00:31:20;10.68;;;6.55;;
46348;SDS011;32057;47.830;19.046;2024-01-30T00:33:45;12.20;;;7.05;;
46348;SDS011;32057;47.830;19.046;2024-01-30T00:36:11;11.15;;;6.38;;
46348;SDS011;32057;47.830;19.046;2024-01-30T00:38:36;17.45;;;5.75;;
46348;SDS011;32057;47.830;19.046;2024-01-30T00:41:02;16.60;;;6.05;;
46348;SDS011;32057;47.830;19.046;2024-01-30T00:43:28;18.02;;;8.88;;
46348;SDS011;32057;47.830;19.046;2024-01-30T00:45:54;18.45;;;7.32;;
46348;SDS011;32057;47.830;19.046;2024-01-30T00:48:19;11.70;;;7.43;;
46348;SDS011;32057;47.830;19.046;2024-01-30T00:50:45;11.18;;;6.35;;
46348;SDS011;32057;47.830;19.046;2024-01-30T00:53:11;9.75;;;5.55;;
46348;SDS011;32057;47.830;19.046;2024-01-30T00:55:36;9.73;;;5.32;;
46348;SDS011;32057;47.830;19.046;2024-01-30T00:58:02;10.57;;;6.38;;
46348;SDS011;32057;47.830;19.046;2024-01-30T01:00:27;11.55;;;6.88;;
46348;SDS011;32057;47.830;19.046;2024-01-30T01:03:00;10.63;;;6.25;;
46348;SDS011;32057;47.830;19.046;2024-01-30T01:05:25;12.50;;;6.55;;
46348;SDS011;32057;47.830;19.046;2024-01-30T01:07:51;8.27;;;5.53;;
46348;SDS011;32057;47.830;19.046;2024-01-30T01:10:16;12.35;;;4.90;;
46348;SDS011;32057;47.830;19.046;2024-01-30T01:12:42;7.82;;;5.43;;
46348;SDS011;32057;47.830;19.046;2024-01-30T01:15:08;9.65;;;5.40;;
46348;SDS011;32057;47.830;19.046;2024-01-30T01:17:37;9.02;;;5.38;;
46348;SDS011;32057;47.830;19.046;2024-01-30T01:20:03;8.38;;;4.85;;
46348;SDS011;32057;47.830;19.046;2024-01-30T01:22:30;10.98;;;5.03;;
46348;SDS011;32057;47.830;19.046;2024-01-30T01:24:55;9.52;;;4.35;;
46348;SDS011;32057;47.830;19.046;2024-01-30T01:27:21;11.13;;;6.22;;
46348;SDS011;32057;47.830;19.046;2024-01-30T01:29:46;8.55;;;4.50;;
46348;SDS011;32057;47.830;19.046;2024-01-30T01:32:12;10.00;;;6.40;;
46348;SDS011;32057;47.830;19.046;2024-01-30T01:34:37;6.38;;;4.90;;
46348;SDS011;32057;47.830;19.046;2024-01-30T01:37:02;17.60;;;5.70;;
46348;SDS011;32057;47.830;19.046;2024-01-30T01:39:28;5.07;;;4.35;;
46348;SDS011;32057;47.830;19.046;2024-01-30T01:41:53;7.85;;;4.35;;
46348;SDS011;32057;47.830;19.046;2024-01-30T01:44:18;14.43;;;6.97;;
46348;SDS011;32057;47.830;19.046;2024-01-30T01:46:44;6.43;;;5.18;;
46348;SDS011;32057;47.830;19.046;2024-01-30T01:49:09;6.93;;;4.85;;
46348;SDS011;32057;47.830;19.046;2024-01-30T01:51:35;9.98;;;5.32;;
46348;SDS011;32057;47.830;19.046;2024-01-30T01:54:03;7.45;;;5.03;;
46348;SDS011;32057;47.830;19.046;2024-01-30T01:56:30;8.18;;;5.10;;
46348;SDS011;32057;47.830;19.046;2024-01-30T01:58:56;6.75;;;3.72;;
46348;SDS011;32057;47.830;19.046;2024-01-30T02:01:25;9.32;;;5.75;;
46348;SDS011;32057;47.830;19.046;2024-01-30T02:03:52;13.43;;;6.55;;
46348;SDS011;32057;47.830;19.046;2024-01-30T02:06:17;9.55;;;5.30;;
46348;SDS011;32057;47.830;19.046;2024-01-30T02:08:43;16.83;;;4.88;;
46348;SDS011;32057;47.830;19.046;2024-01-30T02:11:09;6.63;;;4.38;;
46348;SDS011;32057;47.830;19.046;2024-01-30T02:13:35;10.38;;;4.93;;
46348;SDS011;32057;47.830;19.046;2024-01-30T02:16:01;16.13;;;4.30;;
46348;SDS011;32057;47.830;19.046;2024-01-30T02:18:26;9.93;;;4.63;;
46348;SDS011;32057;47.830;19.046;2024-01-30T02:20:53;11.45;;;4.47;;
46348;SDS011;32057;47.830;19.046;2024-01-30T02:23:19;10.63;;;3.85;;
46348;SDS011;32057;47.830;19.046;2024-01-30T02:25:45;8.35;;;4.25;;
46348;SDS011;32057;47.830;19.046;2024-01-30T02:28:11;10.30;;;4.13;;
46348;SDS011;32057;47.830;19.046;2024-01-30T02:30:39;14.65;;;6.68;;
46348;SDS011;32057;47.830;19.046;2024-01-30T02:33:05;7.00;;;5.18;;
46348;SDS011;32057;47.830;19.046;2024-01-30T02:35:30;11.65;;;5.25;;
46348;SDS011;32057;47.830;19.046;2024-01-30T02:37:56;6.85;;;3.97;;
46348;SDS011;32057;47.830;19.046;2024-01-30T02:40:21;8.75;;;5.05;;
46348;SDS011;32057;47.830;19.046;2024-01-30T02:42:47;4.75;;;3.70;;
46348;SDS011;32057;47.830;19.046;2024-01-30T02:45:12;7.22;;;4.97;;
46348;SDS011;32057;47.830;19.046;2024-01-30T02:47:38;9.65;;;7.00;;
46348;SDS011;32057;47.830;19.046;2024-01-30T02:50:04;6.82;;;4.75;;
46348;SDS011;32057;47.830;19.046;2024-01-30T02:52:30;7.63;;;4.65;;
46348;SDS011;32057;47.830;19.046;2024-01-30T02:54:55;6.43;;;4.78;;
46348;SDS011;32057;47.830;19.046;2024-01-30T02:57:20;6.45;;;4.13;;
46348;SDS011;32057;47.830;19.046;2024-01-30T02:59:46;5.47;;;3.45;;
46348;SDS011;32057;47.830;19.046;2024-01-30T03:02:11;4.55;;;3.95;;
46348;SDS011;32057;47.830;19.046;2024-01-30T03:04:36;8.63;;;4.85;;
46348;SDS011;32057;47.830;19.046;2024-01-30T03:07:01;11.43;;;4.82;;
46348;SDS011;32057;47.830;19.046;2024-01-30T03:09:27;14.77;;;5.63;;
46348;SDS011;32057;47.830;19.046;2024-01-30T03:11:52;5.93;;;3.75;;
46348;SDS011;32057;47.830;19.046;2024-01-30T03:14:17;6.18;;;3.58;;
46348;SDS011;32057;47.830;19.046;2024-01-30T03:16:43;9.38;;;5.20;;
46348;SDS011;32057;47.830;19.046;2024-01-30T03:19:08;5.45;;;4.95;;
46348;SDS011;32057;47.830;19.046;2024-01-30T03:21:34;14.98;;;4.32;;
46348;SDS011;32057;47.830;19.046;2024-01-30T03:23:59;8.38;;;4.97;;
46348;SDS011;32057;47.830;19.046;2024-01-30T03:26:25;5.88;;;5.03;;
46348;SDS011;32057;47.830;19.046;2024-01-30T03:28:50;7.15;;;5.07;;
46348;SDS011;32057;47.830;19.046;2024-01-30T03:31:15;5.68;;;4.38;;
46348;SDS011;32057;47.830;19.046;2024-01-30T03:33:41;8.50;;;5.43;;
46348;SDS011;32057;47.830;19.046;2024-01-30T03:36:07;6.53;;;4.35;;
46348;SDS011;32057;47.830;19.046;2024-01-30T03:38:32;9.13;;;6.68;;
46348;SDS011;32057;47.830;19.046;2024-01-30T03:40:58;5.03;;;4.15;;
46348;SDS011;32057;47.830;19.046;2024-01-30T03:43:24;4.63;;;4.00;;
46348;SDS011;32057;47.830;19.046;2024-01-30T03:45:49;4.95;;;4.43;;
46348;SDS011;32057;47.830;19.046;2024-01-30T03:48:14;6.75;;;3.75;;
46348;SDS011;32057;47.830;19.046;2024-01-30T03:50:40;14.30;;;5.32;;
46348;SDS011;32057;47.830;19.046;2024-01-30T03:53:05;8.60;;;4.63;;
46348;SDS011;32057;47.830;19.046;2024-01-30T03:55:30;6.93;;;3.63;;
46348;SDS011;32057;47.830;19.046;2024-01-30T03:57:56;6.28;;;4.90;;
46348;SDS011;32057;47.830;19.046;2024-01-30T04:00:21;7.47;;;4.82;;
46348;SDS011;32057;47.830;19.046;2024-01-30T04:02:46;13.52;;;4.55;;
46348;SDS011;32057;47.830;19.046;2024-01-30T04:05:11;11.63;;;4.00;;
46348;SDS011;32057;47.830;19.046;2024-01-30T04:07:37;5.28;;;3.78;;
46348;SDS011;32057;47.830;19.046;2024-01-30T04:10:02;5.97;;;4.57;;
46348;SDS011;32057;47.830;19.046;2024-01-30T04:12:30;4.25;;;3.78;;
46348;SDS011;32057;47.830;19.046;2024-01-30T04:14:56;8.70;;;3.88;;
46348;SDS011;32057;47.830;19.046;2024-01-30T04:17:21;8.07;;;4.82;;
46348;SDS011;32057;47.830;19.046;2024-01-30T04:19:47;9.15;;;6.22;;
46348;SDS011;32057;47.830;19.046;2024-01-30T04:22:12;8.20;;;4.57;;
46348;SDS011;32057;47.830;19.046;2024-01-30T04:24:37;13.10;;;4.20;;
46348;SDS011;32057;47.830;19.046;2024-01-30T04:27:03;19.52;;;4.63;;
46348;SDS011;32057;47.830;19.046;2024-01-30T04:29:28;5.53;;;4.35;;
46348;SDS011;32057;47.830;19.046;2024-01-30T04:31:53;5.85;;;4.72;;
46348;SDS011;32057;47.830;19.046;2024-01-30T04:34:19;4.47;;;3.92;;
46348;SDS011;32057;47.830;19.046;2024-01-30T04:36:44;12.95;;;6.63;;
46348;SDS011;32057;47.830;19.046;2024-01-30T04:39:10;9.52;;;4.45;;
46348;SDS011;32057;47.830;19.046;2024-01-30T04:41:36;7.65;;;4.05;;
46348;SDS011;32057;47.830;19.046;2024-01-30T04:44:01;7.50;;;3.88;;
46348;SDS011;32057;47.830;19.046;2024-01-30T04:46:26;4.88;;;2.95;;
46348;SDS011;32057;47.830;19.046;2024-01-30T04:48:52;5.80;;;3.38;;
46348;SDS011;32057;47.830;19.046;2024-01-30T04:51:17;9.05;;;5.07;;
46348;SDS011;32057;47.830;19.046;2024-01-30T04:53:42;9.13;;;3.75;;
46348;SDS011;32057;47.830;19.046;2024-01-30T04:56:07;5.82;;;4.25;;
46348;SDS011;32057;47.830;19.046;2024-01-30T04:58:33;3.22;;;3.00;;
46348;SDS011;32057;47.830;19.046;2024-01-30T05:00:58;7.15;;;3.75;;
46348;SDS011;32057;47.830;19.046;2024-01-30T05:03:24;11.18;;;4.75;;
46348;SDS011;32057;47.830;19.046;2024-01-30T05:05:49;6.50;;;3.55;;
46348;SDS011;32057;47.830;19.046;2024-01-30T05:08:14;6.95;;;4.30;;
46348;SDS011;32057;47.830;19.046;2024-01-30T05:10:40;16.70;;;4.57;;
46348;SDS011;32057;47.830;19.046;2024-01-30T05:13:05;5.63;;;3.55;;
46348;SDS011;32057;47.830;19.046;2024-01-30T05:15:30;6.65;;;3.40;;
46348;SDS011;32057;47.830;19.046;2024-01-30T05:17:56;7.30;;;5.22;;
46348;SDS011;32057;47.830;19.046;2024-01-30T05:20:21;4.00;;;2.97;;
46348;SDS011;32057;47.830;19.046;2024-01-30T05:22:47;3.67;;;3.38;;
46348;SDS011;32057;47.830;19.046;2024-01-30T05:25:12;9.23;;;4.07;;
46348;SDS011;32057;47.830;19.046;2024-01-30T05:27:38;7.82;;;4.72;;
46348;SDS011;32057;47.830;19.046;2024-01-30T05:30:05;9.13;;;4.78;;
46348;SDS011;32057;47.830;19.046;2024-01-30T05:32:31;6.35;;;4.57;;
46348;SDS011;32057;47.830;19.046;2024-01-30T05:34:57;8.40;;;4.55;;
46348;SDS011;32057;47.830;19.046;2024-01-30T05:37:22;9.10;;;6.13;;
46348;SDS011;32057;47.830;19.046;2024-01-30T05:39:47;6.13;;;3.95;;
46348;SDS011;32057;47.830;19.046;2024-01-30T05:42:12;10.57;;;5.93;;
46348;SDS011;32057;47.830;19.046;2024-01-30T05:44:38;7.25;;;4.43;;
46348;SDS011;32057;47.830;19.046;2024-01-30T05:47:03;8.90;;;4.45;;
46348;SDS011;32057;47.830;19.046;2024-01-30T05:49:29;10.60;;;4.85;;
46348;SDS011;32057;47.830;19.046;2024-01-30T05:51:54;6.00;;;3.47;;
46348;SDS011;32057;47.830;19.046;2024-01-30T05:54:19;4.22;;;3.03;;
46348;SDS011;32057;47.830;19.046;2024-01-30T05:56:44;7.90;;;4.55;;
46348;SDS011;32057;47.830;19.046;2024-01-30T05:59:10;4.80;;;2.53;;
46348;SDS011;32057;47.830;19.046;2024-01-30T06:01:35;7.80;;;3.40;;
46348;SDS011;32057;47.830;19.046;2024-01-30T06:04:00;6.43;;;4.30;;
46348;SDS011;32057;47.830;19.046;2024-01-30T06:06:26;8.23;;;4.05;;
46348;SDS011;32057;47.830;19.046;2024-01-30T06:08:52;7.50;;;4.88;;
46348;SDS011;32057;47.830;19.046;2024-01-30T06:11:20;11.38;;;8.10;;
46348;SDS011;32057;47.830;19.046;2024-01-30T06:13:45;4.15;;;3.70;;
46348;SDS011;32057;47.830;19.046;2024-01-30T06:16:11;4.15;;;3.53;;
46348;SDS011;32057;47.830;19.046;2024-01-30T06:18:37;7.18;;;3.88;;
46348;SDS011;32057;47.830;19.046;2024-01-30T06:21:03;16.05;;;4.10;;
46348;SDS011;32057;47.830;19.046;2024-01-30T06:23:29;6.75;;;4.03;;
46348;SDS011;32057;47.830;19.046;2024-01-30T06:25:54;8.00;;;3.85;;
46348;SDS011;32057;47.830;19.046;2024-01-30T06:28:20;7.32;;;6.10;;
46348;SDS011;32057;47.830;19.046;2024-01-30T06:30:45;11.88;;;5.53;;
46348;SDS011;32057;47.830;19.046;2024-01-30T06:33:11;15.50;;;7.28;;
46348;SDS011;32057;47.830;19.046;2024-01-30T06:35:38;12.38;;;6.07;;
46348;SDS011;32057;47.830;19.046;2024-01-30T06:38:05;13.30;;;7.53;;
46348;SDS011;32057;47.830;19.046;2024-01-30T06:40:30;11.95;;;6.20;;
46348;SDS011;32057;47.830;19.046;2024-01-30T06:42:56;7.53;;;6.28;;
46348;SDS011;32057;47.830;19.046;2024-01-30T06:45:21;5.63;;;4.85;;
46348;SDS011;32057;47.830;19.046;2024-01-30T06:47:46;11.52;;;4.45;;
46348;SDS011;32057;47.830;19.046;2024-01-30T06:50:11;11.13;;;5.90;;
46348;SDS011;32057;47.830;19.046;2024-01-30T06:52:37;10.13;;;5.43;;
46348;SDS011;32057;47.830;19.046;2024-01-30T06:55:02;11.02;;;4.22;;
46348;SDS011;32057;47.830;19.046;2024-01-30T06:57:28;7.90;;;4.63;;
46348;SDS011;32057;47.830;19.046;2024-01-30T06:59:57;8.95;;;5.75;;
46348;SDS011;32057;47.830;19.046;2024-01-30T07:02:22;20.88;;;5.20;;
46348;SDS011;32057;47.830;19.046;2024-01-30T07:04:48;15.23;;;7.53;;
46348;SDS011;32057;47.830;19.046;2024-01-30T07:07:14;6.18;;;3.47;;
46348;SDS011;32057;47.830;19.046;2024-01-30T07:09:40;7.70;;;4.22;;
46348;SDS011;32057;47.830;19.046;2024-01-30T07:12:06;11.90;;;5.78;;
46348;SDS011;32057;47.830;19.046;2024-01-30T07:14:31;17.88;;;7.10;;
46348;SDS011;32057;47.830;19.046;2024-01-30T07:16:57;11.65;;;5.93;;
46348;SDS011;32057;47.830;19.046;2024-01-30T07:19:22;21.25;;;6.45;;
46348;SDS011;32057;47.830;19.046;2024-01-30T07:21:47;28.15;;;10.27;;
46348;SDS011;32057;47.830;19.046;2024-01-30T07:24:13;27.67;;;10.93;;
46348;SDS011;32057;47.830;19.046;2024-01-30T07:26:38;60.88;;;20.17;;
46348;SDS011;32057;47.830;19.046;2024-01-30T07:29:03;24.30;;;7.53;;
46348;SDS011;32057;47.830;19.046;2024-01-30T07:31:29;23.75;;;8.30;;
46348;SDS011;32057;47.830;19.046;2024-01-30T07:33:54;21.27;;;8.32;;
46348;SDS011;32057;47.830;19.046;2024-01-30T07:36:19;18.40;;;7.68;;
46348;SDS011;32057;47.830;19.046;2024-01-30T07:38:45;9.82;;;5.20;;
46348;SDS011;32057;47.830;19.046;2024-01-30T07:41:10;21.00;;;7.78;;
46348;SDS011;32057;47.830;19.046;2024-01-30T07:43:36;17.33;;;8.32;;
46348;SDS011;32057;47.830;19.046;2024-01-30T07:46:03;15.70;;;8.32;;
46348;SDS011;32057;47.830;19.046;2024-01-30T07:48:28;15.98;;;8.52;;
46348;SDS011;32057;47.830;19.046;2024-01-30T07:50:53;29.77;;;10.45;;
46348;SDS011;32057;47.830;19.046;2024-01-30T07:53:19;33.65;;;8.60;;
46348;SDS011;32057;47.830;19.046;2024-01-30T07:56:00;13.15;;;7.25;;
46348;SDS011;32057;47.830;19.046;2024-01-30T07:58:25;21.58;;;8.80;;
46348;SDS011;32057;47.830;19.046;2024-01-30T08:00:52;11.77;;;7.13;;
46348;SDS011;32057;47.830;19.046;2024-01-30T08:03:18;20.05;;;9.48;;
46348;SDS011;32057;47.830;19.046;2024-01-30T08:05:43;15.38;;;7.95;;
46348;SDS011;32057;47.830;19.046;2024-01-30T08:08:09;12.43;;;5.78;;
46348;SDS011;32057;47.830;19.046;2024-01-30T08:10:34;14.95;;;8.75;;
46348;SDS011;32057;47.830;19.046;2024-01-30T08:12:59;14.32;;;6.57;;
46348;SDS011;32057;47.830;19.046;2024-01-30T08:15:25;9.70;;;6.75;;
46348;SDS011;32057;47.830;19.046;2024-01-30T08:17:50;17.15;;;7.95;;
46348;SDS011;32057;47.830;19.046;2024-01-30T08:20:20;13.38;;;7.47;;
46348;SDS011;32057;47.830;19.046;2024-01-30T08:22:46;14.93;;;7.05;;
46348;SDS011;32057;47.830;19.046;2024-01-30T08:25:11;13.70;;;6.35;;
46348;SDS011;32057;47.830;19.046;2024-01-30T08:27:36;19.63;;;9.63;;
46348;SDS011;32057;47.830;19.046;2024-01-30T08:30:03;17.20;;;8.20;;
46348;SDS011;32057;47.830;19.046;2024-01-30T08:32:31;17.02;;;7.82;;
46348;SDS011;32057;47.830;19.046;2024-01-30T08:34:56;12.00;;;7.22;;
46348;SDS011;32057;47.830;19.046;2024-01-30T08:37:21;14.05;;;7.47;;
46348;SDS011;32057;47.830;19.046;2024-01-30T08:39:47;11.95;;;7.88;;
46348;SDS011;32057;47.830;19.046;2024-01-30T08:42:12;14.23;;;7.72;;
46348;SDS011;32057;47.830;19.046;2024-01-30T08:44:37;11.90;;;7.30;;
46348;SDS011;32057;47.830;19.046;2024-01-30T08:47:03;12.25;;;6.57;;
46348;SDS011;32057;47.830;19.046;2024-01-30T08:49:29;17.48;;;8.75;;
46348;SDS011;32057;47.830;19.046;2024-01-30T08:51:54;15.02;;;7.85;;
46348;SDS011;32057;47.830;19.046;2024-01-30T08:54:20;13.88;;;7.85;;
46348;SDS011;32057;47.830;19.046;2024-01-30T08:56:45;18.08;;;9.32;;
46348;SDS011;32057;47.830;19.046;2024-01-30T08:59:10;16.27;;;10.93;;
46348;SDS011;32057;47.830;19.046;2024-01-30T09:01:36;17.38;;;7.95;;
46348;SDS011;32057;47.830;19.046;2024-01-30T09:04:01;16.77;;;9.30;;
46348;SDS011;32057;47.830;19.046;2024-01-30T09:06:26;19.88;;;9.98;;
46348;SDS011;32057;47.830;19.046;2024-01-30T09:08:53;17.38;;;8.95;;
46348;SDS011;32057;47.830;19.046;2024-01-30T09:11:18;16.02;;;10.15;;
46348;SDS011;32057;47.830;19.046;2024-01-30T09:13:44;15.85;;;7.65;;
46348;SDS011;32057;47.830;19.046;2024-01-30T09:16:09;19.27;;;9.10;;
46348;SDS011;32057;47.830;19.046;2024-01-30T09:18:35;11.68;;;7.85;;
46348;SDS011;32057;47.830;19.046;2024-01-30T09:21:00;15.32;;;8.60;;
46348;SDS011;32057;47.830;19.046;2024-01-30T09:23:27;22.27;;;9.80;;
46348;SDS011;32057;47.830;19.046;2024-01-30T09:25:52;10.10;;;7.35;;
46348;SDS011;32057;47.830;19.046;2024-01-30T09:28:18;14.20;;;7.53;;
46348;SDS011;32057;47.830;19.046;2024-01-30T09:30:43;15.38;;;9.13;;
46348;SDS011;32057;47.830;19.046;2024-01-30T09:33:09;14.52;;;8.18;;
46348;SDS011;32057;47.830;19.046;2024-01-30T09:35:34;24.52;;;7.20;;
46348;SDS011;32057;47.830;19.046;2024-01-30T09:38:01;18.33;;;8.38;;
46348;SDS011;32057;47.830;19.046;2024-01-30T09:40:27;14.57;;;8.18;;
46348;SDS011;32057;47.830;19.046;2024-01-30T09:42:52;17.38;;;8.82;;
46348;SDS011;32057;47.830;19.046;2024-01-30T09:45:19;16.15;;;8.88;;
46348;SDS011;32057;47.830;19.046;2024-01-30T09:47:45;12.65;;;7.15;;
46348;SDS011;32057;47.830;19.046;2024-01-30T09:50:11;15.07;;;6.65;;
46348;SDS011;32057;47.830;19.046;2024-01-30T09:52:38;14.45;;;8.02;;
46348;SDS011;32057;47.830;19.046;2024-01-30T09:55:04;13.07;;;7.05;;
46348;SDS011;32057;47.830;19.046;2024-01-30T09:57:30;10.02;;;6.38;;
46348;SDS011;32057;47.830;19.046;2024-01-30T09:59:56;11.07;;;6.63;;
46348;SDS011;32057;47.830;19.046;2024-01-30T10:02:22;10.43;;;7.88;;
46348;SDS011;32057;47.830;19.046;2024-01-30T10:04:50;10.60;;;6.68;;
46348;SDS011;32057;47.830;19.046;2024-01-30T10:07:20;8.70;;;4.75;;
46348;SDS011;32057;47.830;19.046;2024-01-30T10:09:45;11.25;;;6.22;;
46348;SDS011;32057;47.830;19.046;2024-01-30T10:12:11;11.15;;;6.43;;
46348;SDS011;32057;47.830;19.046;2024-01-30T10:14:40;9.02;;;4.90;;
46348;SDS011;32057;47.830;19.046;2024-01-30T10:17:10;10.40;;;5.72;;
46348;SDS011;32057;47.830;19.046;2024-01-30T10:19:36;9.88;;;4.78;;
46348;SDS011;32057;47.830;19.046;2024-01-30T10:22:05;9.60;;;5.03;;
46348;SDS011;32057;47.830;19.046;2024-01-30T10:24:31;16.17;;;5.75;;
46348;SDS011;32057;47.830;19.046;2024-01-30T10:26:58;14.45;;;5.85;;
46348;SDS011;32057;47.830;19.046;2024-01-30T10:29:23;13.77;;;6.45;;
46348;SDS011;32057;47.830;19.046;2024-01-30T10:31:59;8.48;;;5.63;;
46348;SDS011;32057;47.830;19.046;2024-01-30T10:34:26;11.00;;;6.18;;
46348;SDS011;32057;47.830;19.046;2024-01-30T10:36:52;9.80;;;4.90;;
46348;SDS011;32057;47.830;19.046;2024-01-30T10:39:25;12.65;;;5.88;;
46348;SDS011;32057;47.830;19.046;2024-01-30T10:41:56;10.60;;;5.68;;
46348;SDS011;32057;47.830;19.046;2024-01-30T10:44:24;10.13;;;6.15;;
46348;SDS011;32057;47.830;19.046;2024-01-30T10:46:54;7.28;;;4.70;;
46348;SDS011;32057;47.830;19.046;2024-01-30T10:49:25;8.77;;;5.05;;
46348;SDS011;32057;47.830;19.046;2024-01-30T10:51:51;10.95;;;5.72;;
46348;SDS011;32057;47.830;19.046;2024-01-30T10:54:17;7.88;;;5.47;;
46348;SDS011;32057;47.830;19.046;2024-01-30T10:56:44;15.00;;;6.75;;
46348;SDS011;32057;47.830;19.046;2024-01-30T10:59:10;10.25;;;6.70;;
46348;SDS011;32057;47.830;19.046;2024-01-30T11:01:38;11.77;;;5.95;;
46348;SDS011;32057;47.830;19.046;2024-01-30T11:04:04;9.82;;;5.50;;
46348;SDS011;32057;47.830;19.046;2024-01-30T11:06:29;13.15;;;7.25;;
46348;SDS011;32057;47.830;19.046;2024-01-30T11:09:04;9.95;;;5.65;;
46348;SDS011;32057;47.830;19.046;2024-01-30T11:11:50;11.23;;;6.78;;
46348;SDS011;32057;47.830;19.046;2024-01-30T11:14:22;13.83;;;6.77;;
46348;SDS011;32057;47.830;19.046;2024-01-30T11:16:51;9.50;;;6.15;;
46348;SDS011;32057;47.830;19.046;2024-01-30T11:19:23;9.95;;;6.00;;
46348;SDS011;32057;47.830;19.046;2024-01-30T11:21:51;24.75;;;7.28;;
46348;SDS011;32057;47.830;19.046;2024-01-30T11:24:22;12.32;;;6.55;;
46348;SDS011;32057;47.830;19.046;2024-01-30T11:26:57;11.90;;;6.75;;
46348;SDS011;32057;47.830;19.046;2024-01-30T11:29:29;10.00;;;6.05;;
46348;SDS011;32057;47.830;19.046;2024-01-30T11:31:55;10.60;;;6.68;;
46348;SDS011;32057;47.830;19.046;2024-01-30T11:34:21;12.10;;;7.28;;
46348;SDS011;32057;47.830;19.046;2024-01-30T11:36:57;10.25;;;6.13;;
46348;SDS011;32057;47.830;19.046;2024-01-30T11:39:24;11.60;;;6.40;;
46348;SDS011;32057;47.830;19.046;2024-01-30T11:41:51;6.05;;;4.88;;
46348;SDS011;32057;47.830;19.046;2024-01-30T11:44:18;9.90;;;6.15;;
46348;SDS011;32057;47.830;19.046;2024-01-30T11:46:46;8.30;;;6.15;;
46348;SDS011;32057;47.830;19.046;2024-01-30T11:49:12;9.57;;;6.53;;
46348;SDS011;32057;47.830;19.046;2024-01-30T11:51:37;10.93;;;6.85;;
46348;SDS011;32057;47.830;19.046;2024-01-30T11:54:03;10.55;;;6.15;;
46348;SDS011;32057;47.830;19.046;2024-01-30T11:56:28;9.98;;;6.07;;
46348;SDS011;32057;47.830;19.046;2024-01-30T11:58:54;11.38;;;7.22;;
46348;SDS011;32057;47.830;19.046;2024-01-30T12:01:19;11.95;;;6.30;;
46348;SDS011;32057;47.830;19.046;2024-01-30T12:03:51;14.90;;;6.97;;
46348;SDS011;32057;47.830;19.046;2024-01-30T12:06:17;15.90;;;7.93;;
46348;SDS011;32057;47.830;19.046;2024-01-30T12:08:42;11.43;;;6.82;;
46348;SDS011;32057;47.830;19.046;2024-01-30T12:11:08;15.70;;;7.03;;
46348;SDS011;32057;47.830;19.046;2024-01-30T12:13:33;7.28;;;5.85;;
46348;SDS011;32057;47.830;19.046;2024-01-30T12:15:59;11.23;;;7.38;;
46348;SDS011;32057;47.830;19.046;2024-01-30T12:18:25;7.68;;;5.32;;
46348;SDS011;32057;47.830;19.046;2024-01-30T12:21:00;14.50;;;5.85;;
46348;SDS011;32057;47.830;19.046;2024-01-30T12:23:26;13.93;;;6.68;;
46348;SDS011;32057;47.830;19.046;2024-01-30T12:25:52;8.93;;;5.82;;
46348;SDS011;32057;47.830;19.046;2024-01-30T12:28:18;13.23;;;6.60;;
46348;SDS011;32057;47.830;19.046;2024-01-30T12:30:44;8.88;;;6.40;;
46348;SDS011;32057;47.830;19.046;2024-01-30T12:33:09;12.02;;;6.93;;
46348;SDS011;32057;47.830;19.046;2024-01-30T12:35:35;16.65;;;6.90;;
46348;SDS011;32057;47.830;19.046;2024-01-30T12:38:00;11.45;;;6.63;;
46348;SDS011;32057;47.830;19.046;2024-01-30T12:40:26;13.63;;;6.90;;
46348;SDS011;32057;47.830;19.046;2024-01-30T12:42:51;13.07;;;7.72;;
46348;SDS011;32057;47.830;19.046;2024-01-30T12:45:17;12.45;;;7.47;;
46348;SDS011;32057;47.830;19.046;2024-01-30T12:47:47;15.98;;;7.63;;
46348;SDS011;32057;47.830;19.046;2024-01-30T12:50:12;10.68;;;7.60;;
46348;SDS011;32057;47.830;19.046;2024-01-30T12:52:40;19.15;;;5.93;;
46348;SDS011;32057;47.830;19.046;2024-01-30T12:55:06;7.07;;;5.50;;
46348;SDS011;32057;47.830;19.046;2024-01-30T12:57:31;12.98;;;7.10;;
46348;SDS011;32057;47.830;19.046;2024-01-30T12:59:56;12.30;;;7.60;;
46348;SDS011;32057;47.830;19.046;2024-01-30T13:02:22;14.18;;;8.18;;
46348;SDS011;32057;47.830;19.046;2024-01-30T13:04:48;8.70;;;6.10;;
46348;SDS011;32057;47.830;19.046;2024-01-30T13:07:13;9.77;;;6.13;;
46348;SDS011;32057;47.830;19.046;2024-01-30T13:09:38;8.70;;;5.90;;
46348;SDS011;32057;47.830;19.046;2024-01-30T13:12:04;13.40;;;8.50;;
46348;SDS011;32057;47.830;19.046;2024-01-30T13:14:30;8.35;;;6.15;;
46348;SDS011;32057;47.830;19.046;2024-01-30T13:16:55;16.75;;;7.20;;
46348;SDS011;32057;47.830;19.046;2024-01-30T13:19:20;18.55;;;8.60;;
46348;SDS011;32057;47.830;19.046;2024-01-30T13:21:46;10.75;;;6.70;;
46348;SDS011;32057;47.830;19.046;2024-01-30T13:24:12;9.55;;;6.65;;
46348;SDS011;32057;47.830;19.046;2024-01-30T13:26:38;12.13;;;6.93;;
46348;SDS011;32057;47.830;19.046;2024-01-30T13:29:04;10.05;;;6.50;;
46348;SDS011;32057;47.830;19.046;2024-01-30T13:31:29;16.77;;;6.93;;
46348;SDS011;32057;47.830;19.046;2024-01-30T13:33:55;11.02;;;6.88;;
46348;SDS011;32057;47.830;19.046;2024-01-30T13:36:20;11.77;;;6.63;;
46348;SDS011;32057;47.830;19.046;2024-01-30T13:38:46;7.05;;;5.82;;
46348;SDS011;32057;47.830;19.046;2024-01-30T13:41:12;8.43;;;5.63;;
46348;SDS011;32057;47.830;19.046;2024-01-30T13:43:37;9.82;;;6.55;;
46348;SDS011;32057;47.830;19.046;2024-01-30T13:46:03;18.45;;;8.52;;
46348;SDS011;32057;47.830;19.046;2024-01-30T13:48:28;13.60;;;7.30;;
46348;SDS011;32057;47.830;19.046;2024-01-30T13:50:54;13.85;;;6.78;;
46348;SDS011;32057;47.830;19.046;2024-01-30T13:53:20;10.55;;;6.53;;
46348;SDS011;32057;47.830;19.046;2024-01-30T13:55:46;9.82;;;5.78;;
46348;SDS011;32057;47.830;19.046;2024-01-30T13:58:12;9.95;;;5.03;;
46348;SDS011;32057;47.830;19.046;2024-01-30T14:00:37;7.57;;;5.18;;
46348;SDS011;32057;47.830;19.046;2024-01-30T14:03:03;13.00;;;6.40;;
46348;SDS011;32057;47.830;19.046;2024-01-30T14:05:29;10.45;;;5.35;;
46348;SDS011;32057;47.830;19.046;2024-01-30T14:07:54;8.60;;;5.50;;
46348;SDS011;32057;47.830;19.046;2024-01-30T14:10:20;9.05;;;5.35;;
46348;SDS011;32057;47.830;19.046;2024-01-30T14:12:45;5.95;;;4.53;;
46348;SDS011;32057;47.830;19.046;2024-01-30T14:15:12;12.75;;;5.95;;
46348;SDS011;32057;47.830;19.046;2024-01-30T14:17:38;9.23;;;5.30;;
46348;SDS011;32057;47.830;19.046;2024-01-30T14:20:04;10.93;;;5.38;;